createdAt,value
2022-11-20T00:01:26.835Z,100781.25
2022-11-20T00:03:55.655Z,100782.75
2022-11-20T00:06:23.507Z,100775.69
2022-11-20T00:08:51.153Z,100765.72
2022-11-20T00:11:21.196Z,100769.94
2022-11-20T00:13:49.993Z,100780.03
2022-11-20T00:16:19.195Z,100783.59
2022-11-20T00:18:46.339Z,100774.66
2022-11-20T00:21:18.811Z,100780.03
2022-11-20T00:23:45.950Z,100774.84
2022-11-20T00:26:15.481Z,100772.97
2022-11-20T00:28:43.635Z,100774.38
2022-11-20T00:31:15.806Z,100772.31
2022-11-20T00:33:43.869Z,100769.81
2022-11-20T00:36:13.685Z,100767.59
2022-11-20T00:38:40.741Z,100768.56
2022-11-20T00:41:12.032Z,100767.88
2022-11-20T00:43:39.118Z,100768.84
2022-11-20T00:46:11.817Z,100778.94
2022-11-20T00:48:38.370Z,100774.19
2022-11-20T00:51:05.394Z,100782.28
2022-11-20T00:53:32.350Z,100782.09
2022-11-20T00:56:01.478Z,100773.19
2022-11-20T00:58:33.909Z,100777.56
2022-11-20T01:01:06.700Z,100789.34
2022-11-20T01:03:38.782Z,100784.50
2022-11-20T01:06:21.627Z,100788.34
2022-11-20T01:08:49.879Z,100785.81
2022-11-20T01:11:19.624Z,100791.88
2022-11-20T01:13:48.309Z,100793.56
2022-11-20T01:16:17.822Z,100786.19
2022-11-20T01:18:47.449Z,100789.53
2022-11-20T01:21:21.369Z,100789.53
2022-11-20T01:23:49.597Z,100790.53
2022-11-20T01:26:18.713Z,100780.78
2022-11-20T01:28:45.448Z,100783.94
2022-11-20T01:31:17.697Z,100777.25
2022-11-20T01:33:45.500Z,100781.63
2022-11-20T01:36:12.694Z,100773.34
2022-11-20T01:38:39.882Z,100779.22
2022-11-20T01:41:07.776Z,100773.16
2022-11-20T01:43:34.734Z,100773.81
2022-11-20T01:46:19.350Z,100773.81
2022-11-20T01:49:15.584Z,100774.19
2022-11-20T01:51:51.023Z,100769.16
2022-11-20T01:54:23.053Z,100762.06
2022-11-20T01:56:55.601Z,100759.34
2022-11-20T01:59:25.137Z,100756.66
2022-11-20T02:01:51.730Z,100759.22
2022-11-20T02:04:19.312Z,100751.41
2022-11-20T02:06:50.698Z,100759.69
2022-11-20T02:09:17.487Z,100769.81
2022-11-20T02:11:44.057Z,100752.81
2022-11-20T02:14:11.709Z,100755.31
2022-11-20T02:16:44.664Z,100757.78
2022-11-20T02:19:22.880Z,100752.88
2022-11-20T02:22:01.500Z,100753.34
2022-11-20T02:24:28.079Z,100745.47
2022-11-20T02:27:00.013Z,100739.06
2022-11-20T02:29:36.355Z,100736.16
2022-11-20T02:32:04.101Z,100731.75
2022-11-20T02:34:30.653Z,100733.31
2022-11-20T02:36:58.667Z,100728.66
2022-11-20T02:39:27.931Z,100721.28
2022-11-20T02:41:56.641Z,100732.00
2022-11-20T02:44:23.244Z,100723.97
2022-11-20T02:46:49.891Z,100718.81
2022-11-20T02:49:17.905Z,100727.56
2022-11-20T02:51:45.356Z,100720.09
2022-11-20T02:54:11.907Z,100725.59
2022-11-20T02:56:40.253Z,100724.38
2022-11-20T02:59:08.703Z,100723.63
2022-11-20T03:01:35.315Z,100727.56
2022-11-20T03:04:02.022Z,100724.28
2022-11-20T03:06:28.722Z,100720.66
2022-11-20T03:08:55.433Z,100718.97
2022-11-20T03:11:22.215Z,100715.81
2022-11-20T03:13:48.749Z,100709.38
2022-11-20T03:16:17.824Z,100713.13
2022-11-20T03:18:45.100Z,100715.25
2022-11-20T03:21:13.323Z,100709.47
2022-11-20T03:23:40.094Z,100713.03
2022-11-20T03:26:28.101Z,100709.69
2022-11-20T03:29:05.354Z,100702.41
2022-11-20T03:31:43.491Z,100704.88
2022-11-20T03:34:12.140Z,100704.38
2022-11-20T03:36:40.512Z,100702.56
2022-11-20T03:39:07.341Z,100701.47
2022-11-20T03:41:38.457Z,100697.59
2022-11-20T03:44:08.620Z,100698.03
2022-11-20T03:46:35.589Z,100694.97
2022-11-20T03:49:02.316Z,100692.56
2022-11-20T03:51:35.161Z,100691.31
2022-11-20T03:54:06.824Z,100694.91
2022-11-20T03:56:35.913Z,100695.47
2022-11-20T03:59:02.533Z,100694.94
2022-11-20T04:01:32.928Z,100692.72
2022-11-20T04:03:59.881Z,100694.38
2022-11-20T04:06:29.466Z,100694.56
2022-11-20T04:08:57.393Z,100688.78
2022-11-20T04:11:26.960Z,100696.78
2022-11-20T04:13:56.304Z,100689.91
2022-11-20T04:16:24.238Z,100687.97
2022-11-20T04:18:59.525Z,100695.56
2022-11-20T04:21:26.871Z,100690.94
2022-11-20T04:23:54.163Z,100700.75
2022-11-20T04:26:22.441Z,100692.84
2022-11-20T04:28:49.092Z,100687.84
2022-11-20T04:31:17.840Z,100686.34
2022-11-20T04:33:45.298Z,100688.38
2022-11-20T04:36:14.682Z,100684.50
2022-11-20T04:38:41.874Z,100678.25
2022-11-20T04:41:13.434Z,100676.56
2022-11-20T04:43:39.965Z,100682.81
2022-11-20T04:46:06.525Z,100680.97
2022-11-20T04:48:33.049Z,100680.13
2022-11-20T04:51:05.018Z,100674.88
2022-11-20T04:53:31.778Z,100679.94
2022-11-20T04:56:07.249Z,100680.78
2022-11-20T04:58:35.364Z,100684.00
2022-11-20T05:01:23.327Z,100682.13
2022-11-20T05:03:50.148Z,100686.88
2022-11-20T05:06:19.415Z,100677.97
2022-11-20T05:08:45.978Z,100679.44
2022-11-20T05:11:15.024Z,100674.22
2022-11-20T05:13:42.170Z,100680.38
2022-11-20T05:16:17.237Z,100681.88
2022-11-20T05:18:44.345Z,100673.78
2022-11-20T05:21:11.694Z,100678.72
2022-11-20T05:23:39.346Z,100667.72
2022-11-20T05:26:07.928Z,100668.19
2022-11-20T05:28:35.038Z,100676.66
2022-11-20T05:31:12.245Z,100674.16
2022-11-20T05:33:41.298Z,100677.50
2022-11-20T05:36:08.374Z,100678.50
2022-11-20T05:38:35.306Z,100671.44
2022-11-20T05:41:07.032Z,100677.88
2022-11-20T05:43:38.409Z,100664.25
2022-11-20T05:46:06.224Z,100677.94
2022-11-20T05:48:33.815Z,100663.81
2022-11-20T05:51:01.855Z,100667.69
2022-11-20T05:53:28.562Z,100671.13
2022-11-20T05:56:16.869Z,100673.75
2022-11-20T05:58:43.996Z,100673.75
2022-11-20T06:01:37.142Z,100669.88
2022-11-20T06:04:03.734Z,100667.16
2022-11-20T06:06:30.341Z,100666.50
2022-11-20T06:08:57.007Z,100666.00
2022-11-20T06:11:23.536Z,100666.84
2022-11-20T06:13:50.574Z,100660.91
2022-11-20T06:16:19.917Z,100662.59
2022-11-20T06:18:47.520Z,100659.25
2022-11-20T06:21:20.734Z,100664.28
2022-11-20T06:23:48.315Z,100659.09
2022-11-20T06:26:22.728Z,100659.75
2022-11-20T06:28:49.998Z,100663.66
2022-11-20T06:31:19.247Z,100661.97
2022-11-20T06:33:46.134Z,100655.38
2022-11-20T06:36:14.418Z,100657.59
2022-11-20T06:38:41.173Z,100657.91
2022-11-20T06:41:11.414Z,100670.81
2022-11-20T06:43:37.973Z,100665.03
2022-11-20T06:46:05.035Z,100660.13
2022-11-20T06:48:31.632Z,100663.84
2022-11-20T06:50:58.224Z,100663.84
2022-11-20T06:53:25.681Z,100669.78
2022-11-20T06:55:53.021Z,100663.66
2022-11-20T06:58:19.769Z,100666.06
2022-11-20T07:00:46.438Z,100668.44
2022-11-20T07:03:13.707Z,100661.38
2022-11-20T07:05:41.223Z,100665.41
2022-11-20T07:08:08.596Z,100659.91
2022-11-20T07:10:35.561Z,100654.97
2022-11-20T07:13:02.216Z,100663.06
2022-11-20T07:15:29.021Z,100665.09
2022-11-20T07:17:55.578Z,100664.53
2022-11-20T07:20:22.288Z,100669.09
2022-11-20T07:22:57.918Z,100665.75
2022-11-20T07:25:28.698Z,100671.63
2022-11-20T07:27:59.633Z,100661.19
2022-11-20T07:30:27.324Z,100665.56
2022-11-20T07:32:55.621Z,100656.09
2022-11-20T07:35:22.979Z,100664.84
2022-11-20T07:37:49.675Z,100663.44
2022-11-20T07:40:17.438Z,100665.13
2022-11-20T07:42:54.196Z,100662.41
2022-11-20T07:45:22.772Z,100658.03
2022-11-20T07:47:49.516Z,100669.16
2022-11-20T07:50:16.329Z,100659.06
2022-11-20T07:52:42.971Z,100665.94
2022-11-20T07:55:10.897Z,100661.25
2022-11-20T07:57:37.511Z,100657.03
2022-11-20T08:00:06.511Z,100648.59
2022-11-20T08:02:33.051Z,100651.63
2022-11-20T08:04:59.602Z,100650.97
2022-11-20T08:07:26.236Z,100652.97
2022-11-20T08:09:52.824Z,100652.47
2022-11-20T08:12:39.357Z,100650.97
2022-11-20T08:15:12.521Z,100645.78
2022-11-20T08:17:39.545Z,100643.91
2022-11-20T08:20:06.366Z,100649.69
2022-11-20T08:22:32.912Z,100639.72
2022-11-20T08:24:59.443Z,100632.47
2022-11-20T08:27:26.079Z,100633.31
2022-11-20T08:29:52.603Z,100631.19
2022-11-20T08:32:19.165Z,100639.16
2022-11-20T08:34:45.747Z,100630.34
2022-11-20T08:37:12.294Z,100638.25
2022-11-20T08:39:38.863Z,100632.28
2022-11-20T08:42:08.858Z,100631.56
2022-11-20T08:44:35.382Z,100628.69
2022-11-20T08:47:02.030Z,100627.91
2022-11-20T08:49:28.574Z,100626.72
2022-11-20T08:51:56.273Z,100628.78
2022-11-20T08:54:23.667Z,100631.63
2022-11-20T08:56:50.240Z,100631.19
2022-11-20T08:59:43.916Z,100623.84
2022-11-20T09:02:03.364Z,100623.84
2022-11-20T09:04:29.919Z,100624.03
2022-11-20T09:06:56.474Z,100624.03
2022-11-20T09:09:23.274Z,100626.59
2022-11-20T09:11:50.992Z,100630.16
2022-11-20T09:14:17.556Z,100631.47
2022-11-20T09:16:46.733Z,100633.69
2022-11-20T09:19:34.738Z,100629.97
2022-11-20T09:22:01.001Z,100631.75
2022-11-20T09:24:28.875Z,100628.78
2022-11-20T09:26:55.451Z,100621.53
2022-11-20T09:29:22.407Z,100625.22
2022-11-20T09:31:49.352Z,100621.34
2022-11-20T09:34:15.896Z,100621.88
2022-11-20T09:36:42.497Z,100618.81
2022-11-20T09:39:09.076Z,100619.66
2022-11-20T09:41:41.487Z,100617.22
2022-11-20T09:44:28.530Z,100603.53
2022-11-20T09:47:24.392Z,100600.19
2022-11-20T09:50:28.412Z,100603.47
2022-11-20T09:53:08.072Z,100593.88
2022-11-20T09:55:37.010Z,100584.75
2022-11-20T09:58:07.951Z,100586.59
2022-11-20T10:00:37.272Z,100589.13
2022-11-20T10:03:15.715Z,100586.16
2022-11-20T10:05:49.565Z,100580.94
2022-11-20T10:08:25.665Z,100580.75
2022-11-20T10:11:09.874Z,100584.56
2022-11-20T10:13:53.411Z,100574.81
2022-11-20T10:16:42.748Z,100580.38
2022-11-20T10:19:32.593Z,100574.13
2022-11-20T10:22:14.266Z,100580.00
2022-11-20T10:25:15.272Z,100584.56
2022-11-20T10:28:25.989Z,100584.75
2022-11-20T10:31:04.044Z,100592.00
2022-11-20T10:34:10.325Z,100594.06
2022-11-20T10:36:37.364Z,100585.31
2022-11-20T10:39:32.151Z,100581.16
2022-11-20T10:42:00.339Z,100590.22
2022-11-20T10:44:47.528Z,100590.22
2022-11-20T10:47:16.809Z,100590.81
2022-11-20T10:49:46.947Z,100592.47
2022-11-20T10:52:28.400Z,100587.66
2022-11-20T10:55:20.993Z,100583.81
2022-11-20T10:58:01.657Z,100582.16
2022-11-20T11:00:28.219Z,100581.50
2022-11-20T11:02:57.299Z,100576.38
2022-11-20T11:05:35.753Z,100577.59
2022-11-20T11:08:03.790Z,100575.28
2022-11-20T11:10:43.872Z,100568.84
2022-11-20T11:13:21.346Z,100572.69
2022-11-20T11:15:47.910Z,100571.16
2022-11-20T11:18:25.773Z,100573.53
2022-11-20T11:20:53.569Z,100568.47
2022-11-20T11:23:40.898Z,100570.44
2022-11-20T11:26:22.296Z,100568.59
2022-11-20T11:28:59.762Z,100554.06
2022-11-20T11:31:28.283Z,100561.13
2022-11-20T11:34:09.354Z,100547.06
2022-11-20T11:36:36.753Z,100544.47
2022-11-20T11:39:06.557Z,100548.00
2022-11-20T11:41:36.641Z,100546.06
2022-11-20T11:44:40.168Z,100551.84
2022-11-20T11:47:13.311Z,100546.53
2022-11-20T11:49:39.847Z,100540.69
2022-11-20T11:52:17.255Z,100544.22
2022-11-20T11:55:10.314Z,100543.38
2022-11-20T11:57:38.515Z,100540.84
2022-11-20T12:00:11.010Z,100544.88
2022-11-20T12:02:47.483Z,100541.97
2022-11-20T12:05:24.723Z,100545.13
2022-11-20T12:07:58.049Z,100535.25
2022-11-20T12:10:45.486Z,100536.75
2022-11-20T12:13:42.677Z,100532.91
2022-11-20T12:16:14.227Z,100525.56
2022-11-20T12:18:42.642Z,100533.13
2022-11-20T12:21:28.115Z,100528.94
2022-11-20T12:24:31.709Z,100525.22
2022-11-20T12:27:26.340Z,100531.78
2022-11-20T12:30:04.220Z,100524.53
2022-11-20T12:32:36.484Z,100519.13
2022-11-20T12:35:38.142Z,100522.56
2022-11-20T12:38:42.126Z,100510.94
2022-11-20T12:41:14.668Z,100511.78
2022-11-20T12:44:23.339Z,100505.00
2022-11-20T12:47:17.004Z,100508.03
2022-11-20T12:50:08.045Z,100502.44
2022-11-20T12:52:43.476Z,100508.69
2022-11-20T12:55:15.631Z,100499.94
2022-11-20T12:58:01.702Z,100492.84
2022-11-20T13:00:28.353Z,100500.25
2022-11-20T13:03:09.940Z,100498.72
2022-11-20T13:05:47.189Z,100487.69
2022-11-20T13:08:30.524Z,100489.34
2022-11-20T13:11:02.121Z,100495.59
2022-11-20T13:13:50.433Z,100482.28
2022-11-20T13:16:42.023Z,100482.94
2022-11-20T13:19:14.833Z,100482.28
2022-11-20T13:21:50.318Z,100484.59
2022-11-20T13:24:20.364Z,100481.66
2022-11-20T13:26:48.108Z,100475.31
2022-11-20T13:29:19.737Z,100481.94
2022-11-20T13:31:48.090Z,100482.13
2022-11-20T13:34:28.158Z,100478.78
2022-11-20T13:36:57.861Z,100474.78
2022-11-20T13:39:29.364Z,100472.09
2022-11-20T13:42:20.101Z,100475.25
2022-11-20T13:44:55.906Z,100475.16
2022-11-20T13:47:23.139Z,100468.94
2022-11-20T13:49:50.431Z,100463.94
2022-11-20T13:52:31.857Z,100464.97
2022-11-20T13:55:16.780Z,100462.63
2022-11-20T13:58:07.810Z,100464.66
2022-11-20T14:00:34.399Z,100460.69
2022-11-20T14:03:06.677Z,100464.22
2022-11-20T14:05:39.797Z,100464.66
2022-11-20T14:08:14.087Z,100457.34
2022-11-20T14:10:40.750Z,100461.28
2022-11-20T14:13:21.618Z,100464.59
2022-11-20T14:15:48.184Z,100460.88
2022-11-20T14:18:26.478Z,100457.06
2022-11-20T14:20:53.151Z,100454.16
2022-11-20T14:23:30.596Z,100450.47
2022-11-20T14:25:57.962Z,100454.50
2022-11-20T14:28:30.174Z,100446.47
2022-11-20T14:30:57.928Z,100448.13
2022-11-20T14:33:27.008Z,100439.41
2022-11-20T14:35:56.275Z,100446.47
2022-11-20T14:38:27.034Z,100441.72
2022-11-20T14:40:54.050Z,100448.97
2022-11-20T14:43:29.044Z,100450.56
2022-11-20T14:46:02.384Z,100448.53
2022-11-20T14:48:33.480Z,100454.28
2022-11-20T14:51:00.027Z,100445.19
2022-11-20T14:53:26.762Z,100450.56
2022-11-20T14:56:01.643Z,100446.22
2022-11-20T14:58:32.338Z,100445.56
2022-11-20T15:01:07.508Z,100443.19
2022-11-20T15:03:39.580Z,100440.69
2022-11-20T15:06:07.830Z,100436.06
2022-11-20T15:08:35.265Z,100436.97
2022-11-20T15:11:02.562Z,100436.81
2022-11-20T15:13:38.530Z,100431.41
2022-11-20T15:16:17.273Z,100432.09
2022-11-20T15:18:44.186Z,100428.03
2022-11-20T15:21:22.127Z,100419.31
2022-11-20T15:23:49.300Z,100423.03
2022-11-20T15:26:36.049Z,100420.78
2022-11-20T15:29:02.594Z,100421.34
2022-11-20T15:31:29.134Z,100426.56
2022-11-20T15:33:55.670Z,100425.34
2022-11-20T15:36:22.252Z,100426.75
2022-11-20T15:38:49.667Z,100421.81
2022-11-20T15:41:16.198Z,100428.03
2022-11-20T15:43:42.914Z,100426.38
2022-11-20T15:46:20.126Z,100424.31
2022-11-20T15:48:52.725Z,100424.50
2022-11-20T15:51:30.171Z,100431.97
2022-11-20T15:53:57.139Z,100428.03
2022-11-20T15:56:24.165Z,100416.41
2022-11-20T15:58:50.778Z,100421.81
2022-11-20T16:01:19.796Z,100423.31
2022-11-20T16:03:46.425Z,100428.03
2022-11-20T16:06:13.060Z,100426.38
2022-11-20T16:08:39.695Z,100423.47
2022-11-20T16:11:06.245Z,100425.34
2022-11-20T16:13:51.587Z,100425.34
2022-11-20T16:16:29.577Z,100426.38
2022-11-20T16:18:56.157Z,100432.59
2022-11-20T16:21:28.682Z,100429.44
2022-11-20T16:23:55.255Z,100429.25
2022-11-20T16:26:21.819Z,100430.94
2022-11-20T16:28:48.346Z,100422.00
2022-11-20T16:31:17.815Z,100429.72
2022-11-20T16:33:50.816Z,100429.06
2022-11-20T16:36:18.332Z,100429.91
2022-11-20T16:38:44.874Z,100436.97
2022-11-20T16:41:14.491Z,100448.13
2022-11-20T16:43:53.350Z,100442.34
2022-11-20T16:46:22.386Z,100438.38
2022-11-20T16:49:06.249Z,100437.53
2022-11-20T16:51:35.673Z,100448.31
2022-11-20T16:54:04.080Z,100443.97
2022-11-20T16:56:30.767Z,100442.94
2022-11-20T16:58:59.484Z,100437.91
2022-11-20T17:01:28.697Z,100435.88
2022-11-20T17:04:04.295Z,100437.53
2022-11-20T17:06:33.548Z,100435.47
2022-11-20T17:09:00.359Z,100435.03
2022-11-20T17:11:27.987Z,100430.28
2022-11-20T17:14:00.502Z,100433.56
2022-11-20T17:16:27.160Z,100435.22
2022-11-20T17:19:02.477Z,100439.41
2022-11-20T17:21:30.247Z,100432.16
2022-11-20T17:24:00.038Z,100441.06
2022-11-20T17:26:28.253Z,100437.34
2022-11-20T17:28:59.087Z,100437.34
2022-11-20T17:31:26.855Z,100437.53
2022-11-20T17:33:53.580Z,100429.06
2022-11-20T17:36:20.890Z,100445.63
2022-11-20T17:38:47.914Z,100431.13
2022-11-20T17:41:16.992Z,100438.19
2022-11-20T17:43:44.344Z,100431.75
2022-11-20T17:46:19.621Z,100436.91
2022-11-20T17:48:47.353Z,100434.66
2022-11-20T17:51:25.189Z,100436.69
2022-11-20T17:53:57.220Z,100428.81
2022-11-20T17:56:42.425Z,100428.16
2022-11-20T17:59:11.587Z,100418.38
2022-11-20T18:01:39.510Z,100422.78
2022-11-20T18:04:06.658Z,100413.19
2022-11-20T18:06:33.478Z,100411.59
2022-11-20T18:09:01.687Z,100402.19
2022-11-20T18:11:31.067Z,100400.19
2022-11-20T18:14:17.241Z,100399.16
2022-11-20T18:16:47.233Z,100390.88
2022-11-20T18:19:16.108Z,100390.03
2022-11-20T18:21:42.938Z,100391.91
2022-11-20T18:24:10.114Z,100390.69
2022-11-20T18:26:43.888Z,100388.63
2022-11-20T18:29:11.343Z,100386.97
2022-11-20T18:31:37.893Z,100382.59
2022-11-20T18:34:05.164Z,100381.75
2022-11-20T18:36:32.626Z,100381.56
2022-11-20T18:39:00.443Z,100381.56
2022-11-20T18:41:48.177Z,100381.56
2022-11-20T18:44:41.764Z,100387.34
2022-11-20T18:47:14.601Z,100378.41
2022-11-20T18:49:52.649Z,100382.59
2022-11-20T18:52:24.586Z,100375.91
2022-11-20T18:54:51.573Z,100380.28
2022-11-20T18:57:23.958Z,100377.38
2022-11-20T18:59:50.956Z,100372.53
2022-11-20T19:02:20.111Z,100371.16
2022-11-20T19:04:46.971Z,100373.84
2022-11-20T19:07:14.673Z,100371.63
2022-11-20T19:09:42.800Z,100372.19
2022-11-20T19:12:11.082Z,100375.72
2022-11-20T19:14:37.783Z,100376.94
2022-11-20T19:17:06.797Z,100377.09
2022-11-20T19:19:34.436Z,100376.94
2022-11-20T19:22:01.001Z,100373.56
2022-11-20T19:24:28.398Z,100374.88
2022-11-20T19:26:58.224Z,100371.16
2022-11-20T19:29:25.997Z,100371.16
2022-11-20T19:31:53.618Z,100377.59
2022-11-20T19:34:20.375Z,100372.19
2022-11-20T19:36:46.964Z,100377.78
2022-11-20T19:39:13.756Z,100383.31
2022-11-20T19:41:41.693Z,100387.53
2022-11-20T19:44:14.050Z,100377.94
2022-11-20T19:46:41.562Z,100379.81
2022-11-20T19:49:10.374Z,100382.34
2022-11-20T19:51:39.190Z,100381.31
2022-11-20T19:54:06.272Z,100385.19
2022-11-20T19:56:33.875Z,100374.06
2022-11-20T19:59:01.280Z,100381.47
2022-11-20T20:01:30.078Z,100373.22
2022-11-20T20:04:01.469Z,100366.50
2022-11-20T20:06:28.627Z,100360.28
2022-11-20T20:09:07.465Z,100365.69
2022-11-20T20:11:35.599Z,100354.69
2022-11-20T20:14:04.380Z,100354.44
2022-11-20T20:16:31.131Z,100353.59
2022-11-20T20:19:01.283Z,100348.22
2022-11-20T20:21:28.397Z,100349.06
2022-11-20T20:23:56.313Z,100339.28
2022-11-20T20:26:24.386Z,100345.34
2022-11-20T20:28:51.460Z,100341.16
2022-11-20T20:31:24.188Z,100351.56
2022-11-20T20:33:50.923Z,100344.50
2022-11-20T20:36:19.939Z,100345.13
2022-11-20T20:38:47.166Z,100340.97
2022-11-20T20:41:14.802Z,100339.28
2022-11-20T20:44:00.074Z,100340.31
2022-11-20T20:46:26.677Z,100333.25
2022-11-20T20:48:54.877Z,100350.09
2022-11-20T20:51:22.199Z,100334.28
2022-11-20T20:53:49.166Z,100333.91
2022-11-20T20:56:16.210Z,100330.56
2022-11-20T20:58:43.090Z,100323.97
2022-11-20T21:01:12.766Z,100319.13
2022-11-20T21:03:39.639Z,100323.69
2022-11-20T21:06:07.938Z,100317.25
2022-11-20T21:08:36.980Z,100326.66
2022-11-20T21:11:12.595Z,100316.91
2022-11-20T21:13:40.976Z,100317.72
2022-11-20T21:16:07.716Z,100313.38
2022-11-20T21:18:35.054Z,100313.38
2022-11-20T21:21:24.186Z,100309.84
2022-11-20T21:23:52.105Z,100308.34
2022-11-20T21:26:19.346Z,100305.66
2022-11-20T21:28:46.120Z,100295.53
2022-11-20T21:31:15.556Z,100293.88
2022-11-20T21:33:44.411Z,100296.72
2022-11-20T21:36:14.434Z,100291.34
2022-11-20T21:38:41.213Z,100293.88
2022-11-20T21:41:09.728Z,100287.44
2022-11-20T21:43:36.799Z,100290.13
2022-11-20T21:46:06.313Z,100286.78
2022-11-20T21:48:34.734Z,100291.81
2022-11-20T21:51:12.120Z,100288.09
2022-11-20T21:53:39.373Z,100291.81
2022-11-20T21:56:08.244Z,100291.81
2022-11-20T21:58:36.060Z,100288.72
2022-11-20T22:01:12.343Z,100288.09
2022-11-20T22:03:39.362Z,100283.34
2022-11-20T22:06:07.228Z,100270.06
2022-11-20T22:08:35.684Z,100275.25
2022-11-20T22:11:05.222Z,100274.03
2022-11-20T22:13:55.011Z,100274.81
2022-11-20T22:16:22.393Z,100271.72
2022-11-20T22:18:51.342Z,100273.59
2022-11-20T22:21:20.538Z,100268.19
2022-11-20T22:23:47.639Z,100265.69
2022-11-20T22:26:22.925Z,100260.28
2022-11-20T22:28:51.372Z,100254.91
2022-11-20T22:31:21.161Z,100249.50
2022-11-20T22:33:48.081Z,100246.63
2022-11-20T22:36:17.459Z,100241.88
2022-11-20T22:38:44.658Z,100237.06
2022-11-20T22:41:12.626Z,100226.09
2022-11-20T22:43:40.085Z,100227.47
2022-11-20T22:46:15.150Z,100227.13
2022-11-20T22:48:53.330Z,100227.31
2022-11-20T22:51:22.814Z,100217.53
2022-11-20T22:53:50.061Z,100213.38
2022-11-20T22:56:17.956Z,100211.16
2022-11-20T22:58:46.879Z,100217.38
2022-11-20T23:01:14.965Z,100205.75
2022-11-20T23:03:44.166Z,100205.75
2022-11-20T23:06:11.933Z,100203.69
2022-11-20T23:08:39.790Z,100203.06
2022-11-20T23:11:09.686Z,100201.19
2022-11-20T23:13:37.016Z,100199.13
2022-11-20T23:16:12.311Z,100200.34
2022-11-20T23:18:39.772Z,100190.41
2022-11-20T23:21:08.053Z,100191.06
2022-11-20T23:23:34.687Z,100196.44
2022-11-20T23:26:12.801Z,100192.31
2022-11-20T23:28:40.640Z,100184.81
2022-11-20T23:31:08.250Z,100181.53
2022-11-20T23:33:43.589Z,100184.22
2022-11-20T23:36:11.081Z,100179.03
2022-11-20T23:38:38.070Z,100178.84
2022-11-20T23:41:05.321Z,100168.91
2022-11-20T23:43:32.006Z,100169.53
2022-11-20T23:46:00.097Z,100164.97
2022-11-20T23:48:29.266Z,100150.84
2022-11-20T23:50:56.397Z,100151.06
2022-11-20T23:53:24.069Z,100140.91
2022-11-20T23:55:56.227Z,100143.81
2022-11-20T23:58:24.874Z,100132.19
